Wagner, South Dakota
Current Conditions -  °F | °C
As of 3:35 PM on Thursday 23 Oct 2014 (Local Time) from KONL Reporting Station
Clear Clear  
Wind Chill: 74°   Ceiling: Unl
Heat Index: 74°   Visibility: 10mi
Dew Point: 38°   Wind: 12mph
Humidity: 28%   Direction: 200°SSW
Pressure: 29.96"   Gusts: NA
Location:  43.08°N, 98.29°W
Report Text: KONL 232035Z AUTO 20010KT 10SM CLR 23/04 A2996 RMK AO2 T02330036
Loading
Personal Weather Stations






























Interactive Weather Map
Tropical Storm Tracking
New forecast layout! Learn more

10-Day Weather Forecast

Advertisements
Track Severe Weather on mobile